Terminal Aerodrome Forecast
Issued by NWS

Home | Current Version | Previous Version | Text Only | Print | Product List | Glossary On
Versions: 1 2 3 4 5 6 7 8 9 10 11 12 13 14 15 16 17 18 19 20 21 22 23 24 25 26 27 28 29 30 31 32
000
FTUS41 KGYX 252326
TAFHIE
TAF
KHIE 252326Z 2600/2624 26010G20KT P6SM BKN040
     FM260400 26005KT P6SM BKN040
     FM261400 27010G17KT P6SM BKN040
     FM262000 27006KT P6SM SCT040=

USA.gov is the U.S. government's official web portal to all federal, state and local government web resources and services.